Fort Smith, Fort Smith Airport (CYSM)

NameFort Smith Airport
CityFort Smith
CountryCanada
ICAOCYSM
IATAYSM
Altitude205 m
CoordinatesGoogle Map
Live Air TrafficLiveATC.net
METARCYSM 161507Z 13002KT 15SM IC FEW220 M29/M32 A3021 RMK CI1 SLP261
2018-12-16 15:07:00 Wind: East-Southeast (130°) 1.03 m/s - Visibility: 24140.1 m - Weather: Ice crystals - Temperature: -29 °C - Dew point: -32 °C - Humidity: 75.2% - Pressure: 1023.03 hPa
Statistics

The table below shows the detailed information of all flights to/from Fort Smith, Fort Smith Airport (CYSM).